sensor_id;sensor_type;location;lat;lon;timestamp;P1;durP1;ratioP1;P2;durP2;ratioP2
26504;SDS011;19493;48.042;7.584;2024-02-04T00:00:42;15.05;;;4.93;;
26504;SDS011;19493;48.042;7.584;2024-02-04T00:03:08;15.82;;;5.25;;
26504;SDS011;19493;48.042;7.584;2024-02-04T00:05:33;23.15;;;5.25;;
26504;SDS011;19493;48.042;7.584;2024-02-04T00:07:59;22.13;;;5.80;;
26504;SDS011;19493;48.042;7.584;2024-02-04T00:10:24;17.70;;;5.38;;
26504;SDS011;19493;48.042;7.584;2024-02-04T00:12:51;19.67;;;5.38;;
26504;SDS011;19493;48.042;7.584;2024-02-04T00:15:17;24.48;;;5.32;;
26504;SDS011;19493;48.042;7.584;2024-02-04T00:17:42;16.50;;;5.32;;
26504;SDS011;19493;48.042;7.584;2024-02-04T00:20:08;19.70;;;5.45;;
26504;SDS011;19493;48.042;7.584;2024-02-04T00:22:34;15.23;;;4.68;;
26504;SDS011;19493;48.042;7.584;2024-02-04T00:25:00;17.83;;;5.15;;
26504;SDS011;19493;48.042;7.584;2024-02-04T00:27:30;20.75;;;5.07;;
26504;SDS011;19493;48.042;7.584;2024-02-04T00:29:57;20.25;;;5.57;;
26504;SDS011;19493;48.042;7.584;2024-02-04T00:32:23;17.63;;;5.60;;
26504;SDS011;19493;48.042;7.584;2024-02-04T00:34:49;18.70;;;5.18;;
26504;SDS011;19493;48.042;7.584;2024-02-04T00:37:15;15.85;;;5.25;;
26504;SDS011;19493;48.042;7.584;2024-02-04T00:39:41;18.23;;;5.40;;
26504;SDS011;19493;48.042;7.584;2024-02-04T00:42:06;20.48;;;5.78;;
26504;SDS011;19493;48.042;7.584;2024-02-04T00:44:32;17.83;;;5.45;;
26504;SDS011;19493;48.042;7.584;2024-02-04T00:46:57;18.55;;;6.57;;
26504;SDS011;19493;48.042;7.584;2024-02-04T00:49:23;18.15;;;6.05;;
26504;SDS011;19493;48.042;7.584;2024-02-04T00:51:49;23.83;;;6.50;;
26504;SDS011;19493;48.042;7.584;2024-02-04T00:54:14;23.95;;;6.63;;
26504;SDS011;19493;48.042;7.584;2024-02-04T00:56:40;23.73;;;7.18;;
26504;SDS011;19493;48.042;7.584;2024-02-04T00:59:05;21.98;;;6.25;;
26504;SDS011;19493;48.042;7.584;2024-02-04T01:01:31;27.63;;;7.20;;
26504;SDS011;19493;48.042;7.584;2024-02-04T01:03:56;22.63;;;6.57;;
26504;SDS011;19493;48.042;7.584;2024-02-04T01:06:22;19.15;;;6.22;;
26504;SDS011;19493;48.042;7.584;2024-02-04T01:08:47;22.48;;;7.15;;
26504;SDS011;19493;48.042;7.584;2024-02-04T01:11:13;23.27;;;7.35;;
26504;SDS011;19493;48.042;7.584;2024-02-04T01:13:38;18.80;;;6.40;;
26504;SDS011;19493;48.042;7.584;2024-02-04T01:16:04;26.30;;;6.90;;
26504;SDS011;19493;48.042;7.584;2024-02-04T01:18:30;24.02;;;6.70;;
26504;SDS011;19493;48.042;7.584;2024-02-04T01:20:57;19.27;;;6.40;;
26504;SDS011;19493;48.042;7.584;2024-02-04T01:23:23;22.95;;;6.78;;
26504;SDS011;19493;48.042;7.584;2024-02-04T01:25:48;23.52;;;6.80;;
26504;SDS011;19493;48.042;7.584;2024-02-04T01:28:14;23.05;;;7.68;;
26504;SDS011;19493;48.042;7.584;2024-02-04T01:30:39;27.08;;;6.82;;
26504;SDS011;19493;48.042;7.584;2024-02-04T01:33:05;25.90;;;7.38;;
26504;SDS011;19493;48.042;7.584;2024-02-04T01:35:31;23.90;;;7.18;;
26504;SDS011;19493;48.042;7.584;2024-02-04T01:37:56;27.40;;;7.88;;
26504;SDS011;19493;48.042;7.584;2024-02-04T01:40:22;31.10;;;8.93;;
26504;SDS011;19493;48.042;7.584;2024-02-04T01:42:48;23.95;;;7.07;;
26504;SDS011;19493;48.042;7.584;2024-02-04T01:45:13;30.40;;;7.38;;
26504;SDS011;19493;48.042;7.584;2024-02-04T01:47:39;26.92;;;7.35;;
26504;SDS011;19493;48.042;7.584;2024-02-04T01:50:05;33.33;;;8.05;;
26504;SDS011;19493;48.042;7.584;2024-02-04T01:52:31;22.50;;;7.60;;
26504;SDS011;19493;48.042;7.584;2024-02-04T01:54:59;24.98;;;7.25;;
26504;SDS011;19493;48.042;7.584;2024-02-04T01:57:26;34.22;;;7.57;;
26504;SDS011;19493;48.042;7.584;2024-02-04T01:59:52;24.63;;;7.50;;
26504;SDS011;19493;48.042;7.584;2024-02-04T02:02:21;28.13;;;7.10;;
26504;SDS011;19493;48.042;7.584;2024-02-04T02:04:46;29.10;;;7.35;;
26504;SDS011;19493;48.042;7.584;2024-02-04T02:07:12;26.65;;;7.38;;
26504;SDS011;19493;48.042;7.584;2024-02-04T02:09:41;21.23;;;6.32;;
26504;SDS011;19493;48.042;7.584;2024-02-04T02:12:12;19.52;;;5.85;;
26504;SDS011;19493;48.042;7.584;2024-02-04T02:14:42;27.88;;;5.97;;
26504;SDS011;19493;48.042;7.584;2024-02-04T02:17:12;19.30;;;5.88;;
26504;SDS011;19493;48.042;7.584;2024-02-04T02:22:49;22.08;;;5.03;;
26504;SDS011;19493;48.042;7.584;2024-02-04T02:25:33;25.10;;;5.28;;
26504;SDS011;19493;48.042;7.584;2024-02-04T02:28:01;20.13;;;5.28;;
26504;SDS011;19493;48.042;7.584;2024-02-04T02:30:27;27.17;;;5.03;;
26504;SDS011;19493;48.042;7.584;2024-02-04T02:32:52;12.85;;;4.55;;
26504;SDS011;19493;48.042;7.584;2024-02-04T02:35:18;17.75;;;4.60;;
26504;SDS011;19493;48.042;7.584;2024-02-04T02:43:06;11.75;;;4.30;;
26504;SDS011;19493;48.042;7.584;2024-02-04T02:45:35;13.98;;;4.20;;
26504;SDS011;19493;48.042;7.584;2024-02-04T02:48:03;15.00;;;4.53;;
26504;SDS011;19493;48.042;7.584;2024-02-04T02:50:31;18.55;;;4.53;;
26504;SDS011;19493;48.042;7.584;2024-02-04T02:52:56;18.88;;;4.53;;
26504;SDS011;19493;48.042;7.584;2024-02-04T02:55:22;11.45;;;3.90;;
26504;SDS011;19493;48.042;7.584;2024-02-04T02:57:47;14.27;;;3.88;;
26504;SDS011;19493;48.042;7.584;2024-02-04T03:00:13;9.93;;;3.30;;
26504;SDS011;19493;48.042;7.584;2024-02-04T03:02:39;13.32;;;3.55;;
26504;SDS011;19493;48.042;7.584;2024-02-04T03:05:05;16.00;;;4.57;;
26504;SDS011;19493;48.042;7.584;2024-02-04T03:07:30;10.40;;;3.50;;
26504;SDS011;19493;48.042;7.584;2024-02-04T03:09:56;11.90;;;3.33;;
26504;SDS011;19493;48.042;7.584;2024-02-04T03:12:21;16.40;;;3.63;;
26504;SDS011;19493;48.042;7.584;2024-02-04T03:14:47;9.82;;;3.50;;
26504;SDS011;19493;48.042;7.584;2024-02-04T03:17:13;15.00;;;4.55;;
26504;SDS011;19493;48.042;7.584;2024-02-04T03:19:38;14.85;;;3.25;;
26504;SDS011;19493;48.042;7.584;2024-02-04T03:22:04;15.45;;;3.92;;
26504;SDS011;19493;48.042;7.584;2024-02-04T03:24:29;12.18;;;3.08;;
26504;SDS011;19493;48.042;7.584;2024-02-04T03:26:55;12.15;;;3.63;;
26504;SDS011;19493;48.042;7.584;2024-02-04T03:29:20;11.55;;;3.03;;
26504;SDS011;19493;48.042;7.584;2024-02-04T03:31:46;11.88;;;3.97;;
26504;SDS011;19493;48.042;7.584;2024-02-04T03:34:11;13.95;;;3.33;;
26504;SDS011;19493;48.042;7.584;2024-02-04T03:36:37;11.55;;;3.53;;
26504;SDS011;19493;48.042;7.584;2024-02-04T03:39:06;8.30;;;2.90;;
26504;SDS011;19493;48.042;7.584;2024-02-04T03:41:31;12.30;;;2.83;;
26504;SDS011;19493;48.042;7.584;2024-02-04T03:43:57;11.90;;;3.47;;
26504;SDS011;19493;48.042;7.584;2024-02-04T03:46:22;14.32;;;3.55;;
26504;SDS011;19493;48.042;7.584;2024-02-04T03:48:48;11.85;;;2.78;;
26504;SDS011;19493;48.042;7.584;2024-02-04T03:51:19;9.10;;;3.03;;
26504;SDS011;19493;48.042;7.584;2024-02-04T03:53:45;15.30;;;2.97;;
26504;SDS011;19493;48.042;7.584;2024-02-04T03:56:12;11.43;;;2.95;;
26504;SDS011;19493;48.042;7.584;2024-02-04T03:58:38;11.90;;;2.78;;
26504;SDS011;19493;48.042;7.584;2024-02-04T04:01:03;9.18;;;2.80;;
26504;SDS011;19493;48.042;7.584;2024-02-04T04:03:29;8.77;;;3.40;;
26504;SDS011;19493;48.042;7.584;2024-02-04T04:05:55;8.05;;;2.63;;
26504;SDS011;19493;48.042;7.584;2024-02-04T04:08:20;10.30;;;2.70;;
26504;SDS011;19493;48.042;7.584;2024-02-04T04:10:46;10.20;;;2.72;;
26504;SDS011;19493;48.042;7.584;2024-02-04T04:13:12;12.95;;;2.40;;
26504;SDS011;19493;48.042;7.584;2024-02-04T04:15:38;5.97;;;2.22;;
26504;SDS011;19493;48.042;7.584;2024-02-04T04:18:04;9.32;;;2.90;;
26504;SDS011;19493;48.042;7.584;2024-02-04T04:20:30;11.80;;;2.80;;
26504;SDS011;19493;48.042;7.584;2024-02-04T04:22:55;7.32;;;2.63;;
26504;SDS011;19493;48.042;7.584;2024-02-04T04:25:21;9.85;;;2.22;;
26504;SDS011;19493;48.042;7.584;2024-02-04T04:27:47;6.90;;;2.45;;
26504;SDS011;19493;48.042;7.584;2024-02-04T04:30:12;7.00;;;2.28;;
26504;SDS011;19493;48.042;7.584;2024-02-04T04:32:38;11.63;;;3.63;;
26504;SDS011;19493;48.042;7.584;2024-02-04T04:35:03;5.03;;;2.25;;
26504;SDS011;19493;48.042;7.584;2024-02-04T04:37:29;6.55;;;2.65;;
26504;SDS011;19493;48.042;7.584;2024-02-04T04:39:55;5.22;;;2.42;;
26504;SDS011;19493;48.042;7.584;2024-02-04T04:42:20;8.07;;;2.55;;
26504;SDS011;19493;48.042;7.584;2024-02-04T04:44:46;7.20;;;2.03;;
26504;SDS011;19493;48.042;7.584;2024-02-04T04:47:11;9.57;;;2.75;;
26504;SDS011;19493;48.042;7.584;2024-02-04T04:49:37;6.82;;;2.30;;
26504;SDS011;19493;48.042;7.584;2024-02-04T04:52:03;8.48;;;2.35;;
26504;SDS011;19493;48.042;7.584;2024-02-04T04:54:29;5.05;;;2.10;;
26504;SDS011;19493;48.042;7.584;2024-02-04T04:56:54;7.75;;;2.33;;
26504;SDS011;19493;48.042;7.584;2024-02-04T04:59:20;7.40;;;2.45;;
26504;SDS011;19493;48.042;7.584;2024-02-04T05:01:46;6.65;;;2.22;;
26504;SDS011;19493;48.042;7.584;2024-02-04T05:04:15;7.10;;;2.22;;
26504;SDS011;19493;48.042;7.584;2024-02-04T05:06:41;4.43;;;1.55;;
26504;SDS011;19493;48.042;7.584;2024-02-04T05:09:07;4.15;;;1.65;;
26504;SDS011;19493;48.042;7.584;2024-02-04T05:11:32;4.32;;;1.50;;
26504;SDS011;19493;48.042;7.584;2024-02-04T05:13:58;10.25;;;2.28;;
26504;SDS011;19493;48.042;7.584;2024-02-04T05:16:23;6.45;;;1.70;;
26504;SDS011;19493;48.042;7.584;2024-02-04T05:18:49;5.68;;;1.65;;
26504;SDS011;19493;48.042;7.584;2024-02-04T05:21:14;3.95;;;1.67;;
26504;SDS011;19493;48.042;7.584;2024-02-04T05:23:40;4.70;;;1.77;;
26504;SDS011;19493;48.042;7.584;2024-02-04T05:26:06;4.20;;;1.60;;
26504;SDS011;19493;48.042;7.584;2024-02-04T05:28:31;6.10;;;1.42;;
26504;SDS011;19493;48.042;7.584;2024-02-04T05:30:57;5.00;;;1.30;;
26504;SDS011;19493;48.042;7.584;2024-02-04T05:33:23;4.50;;;1.42;;
26504;SDS011;19493;48.042;7.584;2024-02-04T05:35:48;4.70;;;1.42;;
26504;SDS011;19493;48.042;7.584;2024-02-04T05:38:15;6.50;;;1.98;;
26504;SDS011;19493;48.042;7.584;2024-02-04T05:40:41;5.35;;;1.40;;
26504;SDS011;19493;48.042;7.584;2024-02-04T05:43:07;4.15;;;1.50;;
26504;SDS011;19493;48.042;7.584;2024-02-04T05:45:35;5.15;;;1.48;;
26504;SDS011;19493;48.042;7.584;2024-02-04T05:48:02;6.50;;;1.20;;
26504;SDS011;19493;48.042;7.584;2024-02-04T05:50:28;6.80;;;1.63;;
26504;SDS011;19493;48.042;7.584;2024-02-04T05:52:53;6.30;;;1.80;;
26504;SDS011;19493;48.042;7.584;2024-02-04T05:55:19;5.47;;;1.50;;
26504;SDS011;19493;48.042;7.584;2024-02-04T05:57:44;1.63;;;0.90;;
26504;SDS011;19493;48.042;7.584;2024-02-04T06:00:10;3.10;;;1.40;;
26504;SDS011;19493;48.042;7.584;2024-02-04T06:02:36;3.50;;;1.40;;
26504;SDS011;19493;48.042;7.584;2024-02-04T06:05:02;4.15;;;1.60;;
26504;SDS011;19493;48.042;7.584;2024-02-04T06:07:27;3.33;;;1.65;;
26504;SDS011;19493;48.042;7.584;2024-02-04T06:09:53;5.55;;;1.85;;
26504;SDS011;19493;48.042;7.584;2024-02-04T06:12:25;7.35;;;1.50;;
26504;SDS011;19493;48.042;7.584;2024-02-04T06:14:50;3.88;;;1.13;;
26504;SDS011;19493;48.042;7.584;2024-02-04T06:17:16;4.75;;;1.10;;
26504;SDS011;19493;48.042;7.584;2024-02-04T06:19:42;5.40;;;1.80;;
26504;SDS011;19493;48.042;7.584;2024-02-04T06:22:07;2.63;;;1.15;;
26504;SDS011;19493;48.042;7.584;2024-02-04T06:24:33;3.47;;;1.30;;
26504;SDS011;19493;48.042;7.584;2024-02-04T06:26:58;4.22;;;1.48;;
26504;SDS011;19493;48.042;7.584;2024-02-04T06:29:24;5.10;;;1.98;;
26504;SDS011;19493;48.042;7.584;2024-02-04T06:31:49;5.05;;;1.85;;
26504;SDS011;19493;48.042;7.584;2024-02-04T06:34:15;3.55;;;1.40;;
26504;SDS011;19493;48.042;7.584;2024-02-04T06:36:44;7.82;;;1.50;;
26504;SDS011;19493;48.042;7.584;2024-02-04T06:39:10;4.38;;;1.63;;
26504;SDS011;19493;48.042;7.584;2024-02-04T06:41:36;4.38;;;1.52;;
26504;SDS011;19493;48.042;7.584;2024-02-04T06:44:02;5.32;;;1.65;;
26504;SDS011;19493;48.042;7.584;2024-02-04T06:46:28;3.35;;;1.40;;
26504;SDS011;19493;48.042;7.584;2024-02-04T06:48:54;7.72;;;1.55;;
26504;SDS011;19493;48.042;7.584;2024-02-04T06:51:20;4.40;;;1.40;;
26504;SDS011;19493;48.042;7.584;2024-02-04T06:53:46;4.70;;;1.55;;
26504;SDS011;19493;48.042;7.584;2024-02-04T06:56:12;5.78;;;1.33;;
26504;SDS011;19493;48.042;7.584;2024-02-04T06:58:38;7.97;;;1.80;;
26504;SDS011;19493;48.042;7.584;2024-02-04T07:01:04;5.90;;;1.73;;
26504;SDS011;19493;48.042;7.584;2024-02-04T07:03:29;8.77;;;1.50;;
26504;SDS011;19493;48.042;7.584;2024-02-04T07:05:55;3.88;;;1.35;;
26504;SDS011;19493;48.042;7.584;2024-02-04T07:08:22;3.80;;;1.10;;
26504;SDS011;19493;48.042;7.584;2024-02-04T07:10:48;5.57;;;1.50;;
26504;SDS011;19493;48.042;7.584;2024-02-04T07:13:13;3.20;;;1.30;;
26504;SDS011;19493;48.042;7.584;2024-02-04T07:15:39;4.72;;;1.13;;
26504;SDS011;19493;48.042;7.584;2024-02-04T07:18:05;4.07;;;0.82;;
26504;SDS011;19493;48.042;7.584;2024-02-04T07:20:30;3.50;;;1.13;;
26504;SDS011;19493;48.042;7.584;2024-02-04T07:22:56;4.57;;;1.70;;
26504;SDS011;19493;48.042;7.584;2024-02-04T07:25:22;2.83;;;1.45;;
26504;SDS011;19493;48.042;7.584;2024-02-04T07:27:47;6.28;;;1.40;;
26504;SDS011;19493;48.042;7.584;2024-02-04T07:30:13;5.47;;;1.10;;
26504;SDS011;19493;48.042;7.584;2024-02-04T07:32:39;2.00;;;1.10;;
26504;SDS011;19493;48.042;7.584;2024-02-04T07:35:05;7.55;;;1.10;;
26504;SDS011;19493;48.042;7.584;2024-02-04T07:37:31;2.03;;;1.13;;
26504;SDS011;19493;48.042;7.584;2024-02-04T07:39:57;3.28;;;1.00;;
26504;SDS011;19493;48.042;7.584;2024-02-04T07:42:23;1.88;;;0.70;;
26504;SDS011;19493;48.042;7.584;2024-02-04T07:44:49;4.45;;;1.50;;
26504;SDS011;19493;48.042;7.584;2024-02-04T07:47:15;3.08;;;1.40;;
26504;SDS011;19493;48.042;7.584;2024-02-04T07:49:41;3.30;;;0.77;;
26504;SDS011;19493;48.042;7.584;2024-02-04T07:52:06;5.75;;;1.30;;
26504;SDS011;19493;48.042;7.584;2024-02-04T07:54:32;3.20;;;1.20;;
26504;SDS011;19493;48.042;7.584;2024-02-04T07:56:57;1.70;;;0.80;;
26504;SDS011;19493;48.042;7.584;2024-02-04T07:59:23;1.80;;;1.00;;
26504;SDS011;19493;48.042;7.584;2024-02-04T08:01:49;3.25;;;1.13;;
26504;SDS011;19493;48.042;7.584;2024-02-04T08:04:14;3.03;;;1.15;;
26504;SDS011;19493;48.042;7.584;2024-02-04T08:06:40;4.35;;;1.23;;
26504;SDS011;19493;48.042;7.584;2024-02-04T08:09:05;3.70;;;1.05;;
26504;SDS011;19493;48.042;7.584;2024-02-04T08:11:31;2.33;;;1.08;;
26504;SDS011;19493;48.042;7.584;2024-02-04T08:13:57;3.38;;;1.08;;
26504;SDS011;19493;48.042;7.584;2024-02-04T08:16:23;8.63;;;1.40;;
26504;SDS011;19493;48.042;7.584;2024-02-04T08:18:49;4.13;;;1.05;;
26504;SDS011;19493;48.042;7.584;2024-02-04T08:21:15;2.80;;;0.93;;
26504;SDS011;19493;48.042;7.584;2024-02-04T08:23:40;1.80;;;0.98;;
26504;SDS011;19493;48.042;7.584;2024-02-04T08:26:06;7.93;;;0.80;;
26504;SDS011;19493;48.042;7.584;2024-02-04T08:28:32;3.28;;;0.85;;
26504;SDS011;19493;48.042;7.584;2024-02-04T08:30:57;1.80;;;0.82;;
26504;SDS011;19493;48.042;7.584;2024-02-04T08:33:23;3.85;;;1.10;;
26504;SDS011;19493;48.042;7.584;2024-02-04T08:35:49;1.75;;;0.75;;
26504;SDS011;19493;48.042;7.584;2024-02-04T08:38:14;4.93;;;1.20;;
26504;SDS011;19493;48.042;7.584;2024-02-04T08:40:40;2.05;;;0.98;;
26504;SDS011;19493;48.042;7.584;2024-02-04T08:43:05;0.90;;;0.63;;
26504;SDS011;19493;48.042;7.584;2024-02-04T08:45:31;2.78;;;0.80;;
26504;SDS011;19493;48.042;7.584;2024-02-04T08:47:56;2.03;;;0.70;;
26504;SDS011;19493;48.042;7.584;2024-02-04T08:50:22;2.65;;;0.93;;
26504;SDS011;19493;48.042;7.584;2024-02-04T08:52:47;7.05;;;0.88;;
26504;SDS011;19493;48.042;7.584;2024-02-04T08:55:13;5.93;;;1.10;;
26504;SDS011;19493;48.042;7.584;2024-02-04T08:57:39;10.63;;;2.22;;
26504;SDS011;19493;48.042;7.584;2024-02-04T09:00:05;3.42;;;0.90;;
26504;SDS011;19493;48.042;7.584;2024-02-04T09:02:37;2.17;;;0.52;;
26504;SDS011;19493;48.042;7.584;2024-02-04T09:05:03;1.98;;;0.70;;
26504;SDS011;19493;48.042;7.584;2024-02-04T09:07:29;0.57;;;0.45;;
26504;SDS011;19493;48.042;7.584;2024-02-04T09:09:56;5.68;;;1.30;;
26504;SDS011;19493;48.042;7.584;2024-02-04T09:12:22;3.78;;;1.50;;
26504;SDS011;19493;48.042;7.584;2024-02-04T09:14:47;3.33;;;1.08;;
26504;SDS011;19493;48.042;7.584;2024-02-04T09:17:13;3.33;;;0.50;;
26504;SDS011;19493;48.042;7.584;2024-02-04T09:19:39;1.80;;;0.80;;
26504;SDS011;19493;48.042;7.584;2024-02-04T09:22:04;10.05;;;0.52;;
26504;SDS011;19493;48.042;7.584;2024-02-04T09:24:30;2.70;;;0.75;;
26504;SDS011;19493;48.042;7.584;2024-02-04T09:26:56;2.80;;;0.60;;
26504;SDS011;19493;48.042;7.584;2024-02-04T09:29:21;1.92;;;0.50;;
26504;SDS011;19493;48.042;7.584;2024-02-04T09:31:47;2.33;;;0.52;;
26504;SDS011;19493;48.042;7.584;2024-02-04T09:34:14;2.00;;;0.68;;
26504;SDS011;19493;48.042;7.584;2024-02-04T09:36:40;1.58;;;0.40;;
26504;SDS011;19493;48.042;7.584;2024-02-04T09:39:06;2.13;;;0.63;;
26504;SDS011;19493;48.042;7.584;2024-02-04T09:41:32;4.35;;;0.50;;
26504;SDS011;19493;48.042;7.584;2024-02-04T09:43:58;1.42;;;0.60;;
26504;SDS011;19493;48.042;7.584;2024-02-04T09:46:26;2.45;;;0.55;;
26504;SDS011;19493;48.042;7.584;2024-02-04T09:48:52;4.80;;;0.95;;
26504;SDS011;19493;48.042;7.584;2024-02-04T09:51:20;1.73;;;0.70;;
26504;SDS011;19493;48.042;7.584;2024-02-04T09:53:45;1.75;;;0.43;;
26504;SDS011;19493;48.042;7.584;2024-02-04T09:56:16;2.00;;;0.40;;
26504;SDS011;19493;48.042;7.584;2024-02-04T09:58:44;2.35;;;0.50;;
26504;SDS011;19493;48.042;7.584;2024-02-04T10:01:10;3.75;;;0.40;;
26504;SDS011;19493;48.042;7.584;2024-02-04T10:03:36;4.93;;;0.60;;
26504;SDS011;19493;48.042;7.584;2024-02-04T10:06:02;3.63;;;0.90;;
26504;SDS011;19493;48.042;7.584;2024-02-04T10:08:27;3.25;;;0.98;;
26504;SDS011;19493;48.042;7.584;2024-02-04T10:10:53;2.28;;;0.65;;
26504;SDS011;19493;48.042;7.584;2024-02-04T10:13:19;2.15;;;0.85;;
26504;SDS011;19493;48.042;7.584;2024-02-04T10:15:47;10.73;;;2.88;;
26504;SDS011;19493;48.042;7.584;2024-02-04T10:18:12;4.30;;;1.55;;
26504;SDS011;19493;48.042;7.584;2024-02-04T10:20:38;0.73;;;0.35;;
26504;SDS011;19493;48.042;7.584;2024-02-04T10:23:04;3.15;;;0.68;;
26504;SDS011;19493;48.042;7.584;2024-02-04T10:25:29;22.88;;;6.30;;
26504;SDS011;19493;48.042;7.584;2024-02-04T10:27:55;1.40;;;0.70;;
26504;SDS011;19493;48.042;7.584;2024-02-04T10:30:22;2.25;;;0.50;;
26504;SDS011;19493;48.042;7.584;2024-02-04T10:32:51;7.18;;;0.57;;
26504;SDS011;19493;48.042;7.584;2024-02-04T10:35:19;1.33;;;0.50;;
26504;SDS011;19493;48.042;7.584;2024-02-04T10:37:47;1.30;;;0.50;;
26504;SDS011;19493;48.042;7.584;2024-02-04T10:40:14;2.90;;;0.90;;
26504;SDS011;19493;48.042;7.584;2024-02-04T10:42:39;3.20;;;1.13;;
26504;SDS011;19493;48.042;7.584;2024-02-04T10:45:08;4.35;;;1.25;;
26504;SDS011;19493;48.042;7.584;2024-02-04T10:47:39;4.68;;;1.65;;
26504;SDS011;19493;48.042;7.584;2024-02-04T10:50:05;1.58;;;0.60;;
26504;SDS011;19493;48.042;7.584;2024-02-04T10:52:38;8.02;;;1.83;;
26504;SDS011;19493;48.042;7.584;2024-02-04T10:55:07;8.30;;;1.67;;
26504;SDS011;19493;48.042;7.584;2024-02-04T10:57:37;2.92;;;0.90;;
26504;SDS011;19493;48.042;7.584;2024-02-04T11:00:04;5.88;;;0.52;;
26504;SDS011;19493;48.042;7.584;2024-02-04T11:02:37;4.78;;;0.55;;
26504;SDS011;19493;48.042;7.584;2024-02-04T11:05:04;2.63;;;0.80;;
26504;SDS011;19493;48.042;7.584;2024-02-04T11:07:34;0.75;;;0.50;;
26504;SDS011;19493;48.042;7.584;2024-02-04T11:10:00;0.75;;;0.35;;
26504;SDS011;19493;48.042;7.584;2024-02-04T11:12:27;3.30;;;0.80;;
26504;SDS011;19493;48.042;7.584;2024-02-04T11:14:54;4.97;;;0.80;;
26504;SDS011;19493;48.042;7.584;2024-02-04T11:20:25;1.85;;;0.40;;
26504;SDS011;19493;48.042;7.584;2024-02-04T11:25:48;1.02;;;0.40;;
26504;SDS011;19493;48.042;7.584;2024-02-04T11:28:16;3.40;;;0.50;;
26504;SDS011;19493;48.042;7.584;2024-02-04T11:30:43;0.45;;;0.30;;
26504;SDS011;19493;48.042;7.584;2024-02-04T11:33:10;4.65;;;0.40;;
26504;SDS011;19493;48.042;7.584;2024-02-04T11:35:36;4.20;;;0.70;;
26504;SDS011;19493;48.042;7.584;2024-02-04T11:38:03;3.78;;;0.40;;
26504;SDS011;19493;48.042;7.584;2024-02-04T11:40:35;1.92;;;0.90;;
26504;SDS011;19493;48.042;7.584;2024-02-04T11:43:09;0.85;;;0.40;;
26504;SDS011;19493;48.042;7.584;2024-02-04T11:45:39;0.93;;;0.55;;
26504;SDS011;19493;48.042;7.584;2024-02-04T11:48:09;1.33;;;0.60;;
26504;SDS011;19493;48.042;7.584;2024-02-04T11:50:35;1.67;;;0.70;;
26504;SDS011;19493;48.042;7.584;2024-02-04T11:53:04;4.13;;;1.00;;
26504;SDS011;19493;48.042;7.584;2024-02-04T11:55:30;2.03;;;0.50;;
26504;SDS011;19493;48.042;7.584;2024-02-04T11:57:56;2.72;;;0.70;;
26504;SDS011;19493;48.042;7.584;2024-02-04T12:00:22;3.33;;;0.52;;
26504;SDS011;19493;48.042;7.584;2024-02-04T12:02:48;1.83;;;0.57;;
26504;SDS011;19493;48.042;7.584;2024-02-04T12:05:32;2.65;;;0.75;;
26504;SDS011;19493;48.042;7.584;2024-02-04T12:08:01;4.43;;;0.70;;
26504;SDS011;19493;48.042;7.584;2024-02-04T12:10:29;1.70;;;0.60;;
26504;SDS011;19493;48.042;7.584;2024-02-04T12:12:56;2.97;;;0.57;;
26504;SDS011;19493;48.042;7.584;2024-02-04T12:15:26;4.75;;;0.90;;
26504;SDS011;19493;48.042;7.584;2024-02-04T12:17:53;2.53;;;0.70;;
26504;SDS011;19493;48.042;7.584;2024-02-04T12:20:19;1.90;;;0.95;;
26504;SDS011;19493;48.042;7.584;2024-02-04T12:22:44;0.77;;;0.40;;
26504;SDS011;19493;48.042;7.584;2024-02-04T12:25:10;0.90;;;0.60;;
26504;SDS011;19493;48.042;7.584;2024-02-04T12:27:36;5.38;;;0.65;;
26504;SDS011;19493;48.042;7.584;2024-02-04T12:30:02;1.63;;;0.60;;
26504;SDS011;19493;48.042;7.584;2024-02-04T12:32:30;1.73;;;0.75;;
26504;SDS011;19493;48.042;7.584;2024-02-04T12:34:56;1.17;;;0.47;;
26504;SDS011;19493;48.042;7.584;2024-02-04T12:37:21;1.25;;;0.40;;
26504;SDS011;19493;48.042;7.584;2024-02-04T12:39:47;6.22;;;0.70;;
26504;SDS011;19493;48.042;7.584;2024-02-04T12:42:16;1.08;;;0.40;;
26504;SDS011;19493;48.042;7.584;2024-02-04T12:44:47;1.35;;;0.43;;
26504;SDS011;19493;48.042;7.584;2024-02-04T12:47:13;2.03;;;0.57;;
26504;SDS011;19493;48.042;7.584;2024-02-04T12:49:40;0.82;;;0.38;;
26504;SDS011;19493;48.042;7.584;2024-02-04T12:52:06;1.35;;;0.50;;
26504;SDS011;19493;48.042;7.584;2024-02-04T12:54:45;3.13;;;1.00;;
26504;SDS011;19493;48.042;7.584;2024-02-04T12:57:20;8.13;;;0.93;;
26504;SDS011;19493;48.042;7.584;2024-02-04T12:59:48;1.85;;;0.80;;
26504;SDS011;19493;48.042;7.584;2024-02-04T13:02:13;1.17;;;0.43;;
26504;SDS011;19493;48.042;7.584;2024-02-04T13:04:40;1.58;;;0.70;;
26504;SDS011;19493;48.042;7.584;2024-02-04T13:07:08;3.08;;;0.50;;
26504;SDS011;19493;48.042;7.584;2024-02-04T13:09:35;1.52;;;0.68;;
26504;SDS011;19493;48.042;7.584;2024-02-04T13:12:08;1.58;;;0.63;;
26504;SDS011;19493;48.042;7.584;2024-02-04T13:14:35;2.30;;;0.98;;
26504;SDS011;19493;48.042;7.584;2024-02-04T13:17:05;1.85;;;0.75;;
26504;SDS011;19493;48.042;7.584;2024-02-04T13:19:34;2.88;;;0.70;;
26504;SDS011;19493;48.042;7.584;2024-02-04T13:22:02;3.47;;;0.70;;
26504;SDS011;19493;48.042;7.584;2024-02-04T13:24:29;2.58;;;0.75;;
26504;SDS011;19493;48.042;7.584;2024-02-04T13:26:55;3.17;;;0.85;;
26504;SDS011;19493;48.042;7.584;2024-02-04T13:29:21;6.55;;;0.70;;
26504;SDS011;19493;48.042;7.584;2024-02-04T13:31:46;5.63;;;1.10;;
26504;SDS011;19493;48.042;7.584;2024-02-04T13:34:12;4.28;;;1.00;;
26504;SDS011;19493;48.042;7.584;2024-02-04T13:36:37;1.80;;;0.77;;
26504;SDS011;19493;48.042;7.584;2024-02-04T13:39:03;2.28;;;1.00;;
26504;SDS011;19493;48.042;7.584;2024-02-04T13:41:30;1.75;;;0.70;;
26504;SDS011;19493;48.042;7.584;2024-02-04T13:43:56;2.00;;;0.68;;
26504;SDS011;19493;48.042;7.584;2024-02-04T13:46:23;1.10;;;0.60;;
26504;SDS011;19493;48.042;7.584;2024-02-04T13:48:49;4.20;;;0.90;;
26504;SDS011;19493;48.042;7.584;2024-02-04T13:51:14;4.15;;;1.13;;
26504;SDS011;19493;48.042;7.584;2024-02-04T13:53:40;2.15;;;0.70;;
26504;SDS011;19493;48.042;7.584;2024-02-04T13:56:06;6.10;;;1.30;;
26504;SDS011;19493;48.042;7.584;2024-02-04T13:58:31;3.10;;;0.90;;
26504;SDS011;19493;48.042;7.584;2024-02-04T14:00:57;6.13;;;1.25;;
26504;SDS011;19493;48.042;7.584;2024-02-04T14:03:23;3.88;;;1.10;;
26504;SDS011;19493;48.042;7.584;2024-02-04T14:05:49;13.77;;;1.48;;
26504;SDS011;19493;48.042;7.584;2024-02-04T14:08:15;2.78;;;0.80;;
26504;SDS011;19493;48.042;7.584;2024-02-04T14:10:41;2.85;;;0.80;;
26504;SDS011;19493;48.042;7.584;2024-02-04T14:13:06;2.17;;;0.90;;
26504;SDS011;19493;48.042;7.584;2024-02-04T14:15:32;2.95;;;0.80;;
26504;SDS011;19493;48.042;7.584;2024-02-04T14:17:59;2.15;;;1.00;;
26504;SDS011;19493;48.042;7.584;2024-02-04T14:20:25;8.02;;;1.95;;
26504;SDS011;19493;48.042;7.584;2024-02-04T14:22:51;5.55;;;1.13;;
26504;SDS011;19493;48.042;7.584;2024-02-04T14:25:17;4.70;;;1.05;;
26504;SDS011;19493;48.042;7.584;2024-02-04T14:27:43;3.50;;;1.08;;
26504;SDS011;19493;48.042;7.584;2024-02-04T14:30:08;4.32;;;1.20;;
26504;SDS011;19493;48.042;7.584;2024-02-04T14:32:34;6.15;;;1.48;;
26504;SDS011;19493;48.042;7.584;2024-02-04T14:35:00;5.50;;;1.45;;
26504;SDS011;19493;48.042;7.584;2024-02-04T14:37:27;6.78;;;1.20;;
26504;SDS011;19493;48.042;7.584;2024-02-04T14:39:53;4.07;;;1.30;;
26504;SDS011;19493;48.042;7.584;2024-02-04T14:42:18;2.95;;;0.90;;
26504;SDS011;19493;48.042;7.584;2024-02-04T14:44:44;2.25;;;0.73;;
26504;SDS011;19493;48.042;7.584;2024-02-04T14:47:10;3.20;;;1.10;;
26504;SDS011;19493;48.042;7.584;2024-02-04T14:49:36;5.20;;;1.20;;
26504;SDS011;19493;48.042;7.584;2024-02-04T14:52:01;2.00;;;0.88;;